createdAt,value
2022-10-22T00:02:09.690Z,32.16
2022-10-22T00:04:39.759Z,33.00
2022-10-22T00:07:09.360Z,32.14
2022-10-22T00:09:39.501Z,31.99
2022-10-22T00:12:09.883Z,33.18
2022-10-22T00:14:40.679Z,33.64
2022-10-22T00:17:11.881Z,34.19
2022-10-22T00:19:42.397Z,31.04
2022-10-22T00:22:13.587Z,31.87
2022-10-22T00:24:43.329Z,30.80
2022-10-22T00:27:14.712Z,31.96
2022-10-22T00:29:45.062Z,31.29
2022-10-22T00:32:16.776Z,33.12
2022-10-22T00:34:47.026Z,32.06
2022-10-22T00:37:16.642Z,31.57
2022-10-22T00:39:46.766Z,30.60
2022-10-22T00:42:26.197Z,33.60
2022-10-22T00:45:14.480Z,31.23
2022-10-22T00:47:47.412Z,31.60
2022-10-22T00:50:24.486Z,30.11
2022-10-22T00:52:56.437Z,30.11
2022-10-22T00:55:28.637Z,30.15
2022-10-22T00:58:00.290Z,29.42
2022-10-22T01:00:29.930Z,30.32
2022-10-22T01:03:01.300Z,29.24
2022-10-22T01:05:35.043Z,29.70
2022-10-22T01:08:05.293Z,29.68
2022-10-22T01:11:07.273Z,30.24
2022-10-22T01:14:01.191Z,28.98
2022-10-22T01:16:56.180Z,31.28
2022-10-22T01:20:01.124Z,28.91
2022-10-22T01:22:46.403Z,31.10
2022-10-22T01:25:49.963Z,31.39
2022-10-22T01:28:40.352Z,29.16
2022-10-22T01:31:13.784Z,29.85
2022-10-22T01:33:47.944Z,29.58
2022-10-22T01:36:19.706Z,30.19
2022-10-22T01:38:52.974Z,29.09
2022-10-22T01:41:23.340Z,30.99
2022-10-22T01:43:52.760Z,28.11
2022-10-22T01:46:25.060Z,28.40
2022-10-22T01:49:10.361Z,28.58
2022-10-22T01:52:01.844Z,29.41
2022-10-22T01:54:40.713Z,30.62
2022-10-22T01:57:22.435Z,29.57
2022-10-22T02:00:01.174Z,28.64
2022-10-22T02:02:52.129Z,28.74
2022-10-22T02:05:30.856Z,28.88
2022-10-22T02:08:23.828Z,29.11
2022-10-22T02:10:55.518Z,29.00
2022-10-22T02:13:38.154Z,28.51
2022-10-22T02:16:12.234Z,29.66
2022-10-22T02:18:47.038Z,27.37
2022-10-22T02:21:17.898Z,27.93
2022-10-22T02:23:48.409Z,28.43
2022-10-22T02:26:41.154Z,30.07
2022-10-22T02:29:57.407Z,28.89
2022-10-22T02:32:34.837Z,28.85
2022-10-22T02:35:06.218Z,27.90
2022-10-22T02:37:36.860Z,27.77
2022-10-22T02:40:07.783Z,28.18
2022-10-22T02:42:40.156Z,27.42
2022-10-22T02:45:11.072Z,26.23
2022-10-22T02:47:41.120Z,26.29
2022-10-22T02:50:11.465Z,27.24
2022-10-22T02:52:42.248Z,26.19
2022-10-22T02:55:12.732Z,26.40
2022-10-22T02:57:43.501Z,26.60
2022-10-22T03:00:14.540Z,25.86
2022-10-22T03:02:44.775Z,26.08
2022-10-22T03:05:15.236Z,26.26
2022-10-22T03:07:45.296Z,27.04
2022-10-22T03:10:15.445Z,25.72
2022-10-22T03:12:45.706Z,26.39
2022-10-22T03:15:15.851Z,26.14
2022-10-22T03:17:45.996Z,25.49
2022-10-22T03:20:16.798Z,25.62
2022-10-22T03:22:48.033Z,25.16
2022-10-22T03:25:26.058Z,25.61
2022-10-22T03:28:03.715Z,25.40
2022-10-22T03:30:34.334Z,25.57
2022-10-22T03:33:04.675Z,24.86
2022-10-22T03:35:42.027Z,24.85
2022-10-22T03:38:12.983Z,24.79
2022-10-22T03:40:45.165Z,24.82
2022-10-22T03:43:16.277Z,24.72
2022-10-22T03:45:46.554Z,24.88
2022-10-22T03:48:17.170Z,24.43
2022-10-22T03:50:48.124Z,25.01
2022-10-22T03:53:18.597Z,24.28
2022-10-22T03:55:48.824Z,24.42
2022-10-22T03:58:19.030Z,24.24
2022-10-22T04:00:49.687Z,24.62
2022-10-22T04:03:20.049Z,25.07
2022-10-22T04:05:50.763Z,24.55
2022-10-22T04:08:21.055Z,23.69
2022-10-22T04:10:53.981Z,24.44
2022-10-22T04:13:25.433Z,25.93
2022-10-22T04:15:56.254Z,26.14
2022-10-22T04:18:26.640Z,25.08
2022-10-22T04:20:56.782Z,25.52
2022-10-22T04:23:26.972Z,26.82
2022-10-22T04:26:02.596Z,24.58
2022-10-22T04:28:33.027Z,23.91
2022-10-22T04:31:09.377Z,24.16
2022-10-22T04:33:41.424Z,24.17
2022-10-22T04:36:21.586Z,24.67
2022-10-22T04:39:03.219Z,24.06
2022-10-22T04:41:39.381Z,25.02
2022-10-22T04:44:13.631Z,23.78
2022-10-22T04:46:46.739Z,25.37
2022-10-22T04:49:17.022Z,24.56
2022-10-22T04:51:47.427Z,25.52
2022-10-22T04:54:18.568Z,23.54
2022-10-22T04:56:49.478Z,23.83
2022-10-22T04:59:19.896Z,24.79
2022-10-22T05:01:50.049Z,24.38
2022-10-22T05:04:21.193Z,23.38
2022-10-22T05:06:51.520Z,23.75
2022-10-22T05:09:23.076Z,23.56
2022-10-22T05:11:54.839Z,23.91
2022-10-22T05:14:27.657Z,24.79
2022-10-22T05:16:58.019Z,23.67
2022-10-22T05:19:32.965Z,24.55
2022-10-22T05:22:05.503Z,23.00
2022-10-22T05:24:38.487Z,23.51
2022-10-22T05:27:08.720Z,22.79
2022-10-22T05:29:39.177Z,23.00
2022-10-22T05:32:09.206Z,23.62
2022-10-22T05:34:39.628Z,23.50
2022-10-22T05:37:09.910Z,23.63
2022-10-22T05:39:42.312Z,23.31
2022-10-22T05:42:12.983Z,22.91
2022-10-22T05:44:43.227Z,23.22
2022-10-22T05:47:13.305Z,22.54
2022-10-22T05:49:43.445Z,23.61
2022-10-22T05:52:13.909Z,24.71
2022-10-22T05:54:44.343Z,25.08
2022-10-22T05:57:14.586Z,25.34
2022-10-22T05:59:44.759Z,24.56
2022-10-22T06:02:14.950Z,25.53
2022-10-22T06:04:45.212Z,24.90
2022-10-22T06:07:18.160Z,25.06
2022-10-22T06:09:52.390Z,26.00
2022-10-22T06:12:22.568Z,25.47
2022-10-22T06:14:52.599Z,25.33
2022-10-22T06:17:22.938Z,25.95
2022-10-22T06:19:53.622Z,25.09
2022-10-22T06:22:23.761Z,27.03
2022-10-22T06:24:55.221Z,25.65
2022-10-22T06:27:25.415Z,25.11
2022-10-22T06:29:55.605Z,24.17
2022-10-22T06:32:25.770Z,25.17
2022-10-22T06:34:55.801Z,25.11
2022-10-22T06:37:25.951Z,25.96
2022-10-22T06:39:55.973Z,25.13
2022-10-22T06:42:26.088Z,24.66
2022-10-22T06:44:56.227Z,24.60
2022-10-22T06:47:28.194Z,24.98
2022-10-22T06:49:58.650Z,25.86
2022-10-22T06:52:29.832Z,24.68
2022-10-22T06:55:00.018Z,24.60
2022-10-22T06:57:31.634Z,24.59
2022-10-22T07:00:01.787Z,24.51
2022-10-22T07:02:31.998Z,25.24
2022-10-22T07:05:02.619Z,24.87
2022-10-22T07:07:32.944Z,25.06
2022-10-22T07:10:03.201Z,24.57
2022-10-22T07:12:35.541Z,24.30
2022-10-22T07:15:06.518Z,24.95
2022-10-22T07:17:36.532Z,27.21
2022-10-22T07:20:07.194Z,25.07
2022-10-22T07:22:37.726Z,24.65
2022-10-22T07:25:08.208Z,24.96
2022-10-22T07:27:39.384Z,23.96
2022-10-22T07:30:10.668Z,24.95
2022-10-22T07:32:41.362Z,24.72
2022-10-22T07:35:12.018Z,24.30
2022-10-22T07:37:42.887Z,24.73
2022-10-22T07:40:13.872Z,23.90
2022-10-22T07:42:43.930Z,24.77
2022-10-22T07:45:15.590Z,25.42
2022-10-22T07:47:45.990Z,24.05
2022-10-22T07:50:17.432Z,24.94
2022-10-22T07:52:48.188Z,25.23
2022-10-22T07:55:18.830Z,25.21
2022-10-22T07:57:49.057Z,25.18
2022-10-22T08:00:24.469Z,25.19
2022-10-22T08:02:55.837Z,24.27
2022-10-22T08:05:25.937Z,24.50
2022-10-22T08:07:56.533Z,24.48
2022-10-22T08:10:26.619Z,24.41
2022-10-22T08:12:56.866Z,24.13
2022-10-22T08:15:28.596Z,25.05
2022-10-22T08:17:59.254Z,25.10
2022-10-22T08:20:29.809Z,25.41
2022-10-22T08:23:01.034Z,24.10
2022-10-22T08:25:32.050Z,24.95
2022-10-22T08:28:02.763Z,24.64
2022-10-22T08:30:35.400Z,24.37
2022-10-22T08:33:06.125Z,25.31
2022-10-22T08:35:36.796Z,24.76
2022-10-22T08:38:06.919Z,25.00
2022-10-22T08:40:42.292Z,26.17
2022-10-22T08:43:27.817Z,27.27
2022-10-22T08:45:58.151Z,26.97
2022-10-22T08:48:40.701Z,28.45
2022-10-22T08:51:16.789Z,27.79
2022-10-22T08:54:00.082Z,27.25
2022-10-22T08:56:32.816Z,28.10
2022-10-22T08:59:25.339Z,28.96
2022-10-22T09:01:56.605Z,28.51
2022-10-22T09:04:56.095Z,29.72
2022-10-22T09:07:27.046Z,28.94
2022-10-22T09:10:01.613Z,29.16
2022-10-22T09:12:32.091Z,29.37
2022-10-22T09:15:02.574Z,29.08
2022-10-22T09:17:47.460Z,30.04
2022-10-22T09:20:49.266Z,29.74
2022-10-22T09:23:51.838Z,29.89
2022-10-22T09:26:22.246Z,29.70
2022-10-22T09:28:53.936Z,29.92
2022-10-22T09:31:24.337Z,29.86
2022-10-22T09:33:54.527Z,30.04
2022-10-22T09:36:25.649Z,29.73
2022-10-22T09:38:57.263Z,29.99
2022-10-22T09:41:33.531Z,30.77
2022-10-22T09:44:04.069Z,30.13
2022-10-22T09:46:46.863Z,30.59
2022-10-22T09:49:24.368Z,31.16
2022-10-22T09:52:01.395Z,30.75
2022-10-22T09:54:34.619Z,31.10
2022-10-22T09:57:19.952Z,31.27
2022-10-22T09:59:52.827Z,30.55
2022-10-22T10:02:38.286Z,31.00
2022-10-22T10:05:10.280Z,31.00
2022-10-22T10:07:40.643Z,30.63
2022-10-22T10:10:36.142Z,31.20
2022-10-22T10:13:20.835Z,31.00
2022-10-22T10:16:31.996Z,31.33
2022-10-22T10:19:15.637Z,31.40
2022-10-22T10:21:51.812Z,31.40
2022-10-22T10:24:34.164Z,31.83
2022-10-22T10:27:03.566Z,32.22
2022-10-22T10:30:12.252Z,32.34
2022-10-22T10:33:09.599Z,32.11
2022-10-22T10:35:58.335Z,31.99
2022-10-22T10:38:47.354Z,32.32
2022-10-22T10:41:43.632Z,32.75
2022-10-22T10:44:44.331Z,32.33
2022-10-22T10:47:48.073Z,32.63
2022-10-22T10:50:40.899Z,33.13
2022-10-22T10:53:33.240Z,33.39
2022-10-22T10:56:21.886Z,33.77
2022-10-22T10:59:00.097Z,33.85
2022-10-22T11:01:51.513Z,33.49
2022-10-22T11:04:46.137Z,33.52
2022-10-22T11:07:34.199Z,33.89
2022-10-22T11:10:41.162Z,32.39
2022-10-22T11:13:24.400Z,32.49
2022-10-22T11:16:02.882Z,33.45
2022-10-22T11:19:22.651Z,33.25
2022-10-22T11:22:15.900Z,33.53
2022-10-22T11:24:55.587Z,32.95
2022-10-22T11:27:44.249Z,33.38
2022-10-22T11:30:17.662Z,33.36
2022-10-22T11:33:01.274Z,33.66
2022-10-22T11:35:39.628Z,34.23
2022-10-22T11:38:14.284Z,34.00
2022-10-22T11:40:56.432Z,33.34
2022-10-22T11:43:37.066Z,33.11
2022-10-22T11:46:19.207Z,33.10
2022-10-22T11:49:15.919Z,33.92
2022-10-22T11:51:48.483Z,34.84
2022-10-22T11:54:44.126Z,34.70
2022-10-22T11:57:30.584Z,34.63
2022-10-22T12:00:02.821Z,34.65
2022-10-22T12:02:47.248Z,35.09
2022-10-22T12:05:43.048Z,35.13
2022-10-22T12:08:15.599Z,36.07
2022-10-22T12:10:56.685Z,35.62
2022-10-22T12:13:35.863Z,34.74
2022-10-22T12:16:10.473Z,36.34
2022-10-22T12:18:46.256Z,36.60
2022-10-22T12:21:18.621Z,35.61
2022-10-22T12:23:49.037Z,36.07
2022-10-22T12:26:28.471Z,35.68
2022-10-22T12:29:03.731Z,35.74
2022-10-22T12:31:39.652Z,35.44
2022-10-22T12:34:15.005Z,35.61
2022-10-22T12:36:47.718Z,36.42
2022-10-22T12:39:22.131Z,35.57
2022-10-22T12:41:53.984Z,36.20
2022-10-22T12:44:24.360Z,35.49
2022-10-22T12:46:56.968Z,35.38
2022-10-22T12:49:51.228Z,36.28
2022-10-22T12:52:25.143Z,36.60
2022-10-22T12:54:56.173Z,35.95
2022-10-22T12:57:27.669Z,35.40
2022-10-22T12:59:57.895Z,35.29
2022-10-22T13:02:31.318Z,35.78
2022-10-22T13:05:22.403Z,34.82
2022-10-22T13:08:19.806Z,34.16
2022-10-22T13:10:56.008Z,34.70
2022-10-22T13:13:47.226Z,34.59
2022-10-22T13:16:25.726Z,34.44
2022-10-22T13:18:56.474Z,34.51
2022-10-22T13:21:28.638Z,35.14
2022-10-22T13:24:21.832Z,34.57
2022-10-22T13:26:56.607Z,33.99
2022-10-22T13:29:27.717Z,34.53
2022-10-22T13:31:58.057Z,35.29
2022-10-22T13:34:29.005Z,35.70
2022-10-22T13:36:58.458Z,36.03
2022-10-22T13:39:28.716Z,36.57
2022-10-22T13:41:58.987Z,36.44
2022-10-22T13:44:29.137Z,36.73
2022-10-22T13:46:59.516Z,36.02
2022-10-22T13:49:29.979Z,36.01
2022-10-22T13:52:02.071Z,36.00
2022-10-22T13:54:32.587Z,35.69
2022-10-22T13:57:03.019Z,35.05
2022-10-22T13:59:33.640Z,34.70
2022-10-22T14:02:07.917Z,34.87
2022-10-22T14:04:40.861Z,34.88
2022-10-22T14:07:20.854Z,34.82
2022-10-22T14:09:50.986Z,34.63
2022-10-22T14:12:22.068Z,35.02
2022-10-22T14:14:52.838Z,35.41
2022-10-22T14:17:23.795Z,35.08
2022-10-22T14:19:54.234Z,34.57
2022-10-22T14:22:29.167Z,35.19
2022-10-22T14:25:00.013Z,35.57
2022-10-22T14:27:31.084Z,36.12
2022-10-22T14:30:02.033Z,36.01
2022-10-22T14:32:33.035Z,36.20
2022-10-22T14:35:03.741Z,35.96
2022-10-22T14:37:34.336Z,35.90
2022-10-22T14:40:05.016Z,36.88
2022-10-22T14:42:42.044Z,36.59
2022-10-22T14:45:38.730Z,36.79
2022-10-22T14:48:10.075Z,36.42
2022-10-22T14:50:42.470Z,36.13
2022-10-22T14:53:16.090Z,36.27
2022-10-22T14:55:50.569Z,36.55
2022-10-22T14:58:21.510Z,36.72
2022-10-22T15:00:52.656Z,36.54
2022-10-22T15:03:24.333Z,35.78
2022-10-22T15:05:55.625Z,35.99
2022-10-22T15:08:28.623Z,36.49
2022-10-22T15:11:04.644Z,36.41
2022-10-22T15:13:35.790Z,37.07
2022-10-22T15:16:11.404Z,37.00
2022-10-22T15:18:42.661Z,37.25
2022-10-22T15:21:19.830Z,37.87
2022-10-22T15:23:51.158Z,37.40
2022-10-22T15:26:22.011Z,38.08
2022-10-22T15:28:53.196Z,38.15
2022-10-22T15:31:47.814Z,37.75
2022-10-22T15:34:32.753Z,38.29
2022-10-22T15:37:06.559Z,37.71
2022-10-22T15:39:37.672Z,37.35
2022-10-22T15:42:09.093Z,37.89
2022-10-22T15:44:41.226Z,37.95
2022-10-22T15:47:12.867Z,38.26
2022-10-22T15:49:43.361Z,38.19
2022-10-22T15:52:13.988Z,38.89
2022-10-22T15:54:45.402Z,37.61
2022-10-22T15:57:15.778Z,37.51
2022-10-22T15:59:45.585Z,37.61
2022-10-22T16:02:17.047Z,37.88
2022-10-22T16:04:47.617Z,37.50
2022-10-22T16:07:21.058Z,36.84
2022-10-22T16:10:02.031Z,37.07
2022-10-22T16:12:32.576Z,37.49
2022-10-22T16:15:02.963Z,38.44
2022-10-22T16:17:33.848Z,37.70
2022-10-22T16:20:04.409Z,37.67
2022-10-22T16:22:35.401Z,38.60
2022-10-22T16:25:06.276Z,38.12
2022-10-22T16:27:37.443Z,37.73
2022-10-22T16:30:08.483Z,36.88
2022-10-22T16:32:39.529Z,37.02
2022-10-22T16:35:11.133Z,37.68
2022-10-22T16:37:42.108Z,37.36
2022-10-22T16:40:12.525Z,38.69
2022-10-22T16:42:43.439Z,37.86
2022-10-22T16:47:48.259Z,37.84
2022-10-22T16:50:19.040Z,38.19
2022-10-22T16:52:49.635Z,38.96
2022-10-22T16:55:19.963Z,38.35
2022-10-22T16:57:54.896Z,38.44
2022-10-22T17:00:25.462Z,38.55
2022-10-22T17:02:56.175Z,37.95
2022-10-22T17:05:27.137Z,38.27
2022-10-22T17:07:57.956Z,37.23
2022-10-22T17:10:29.016Z,37.70
2022-10-22T17:12:59.804Z,37.99
2022-10-22T17:15:29.932Z,38.16
2022-10-22T17:18:02.738Z,37.36
2022-10-22T17:20:33.385Z,37.59
2022-10-22T17:23:03.899Z,37.90
2022-10-22T17:25:46.540Z,38.33
2022-10-22T17:28:16.958Z,37.89
2022-10-22T17:30:47.605Z,37.55
2022-10-22T17:33:17.711Z,38.08
2022-10-22T17:35:49.834Z,38.41
2022-10-22T17:38:20.395Z,38.93
2022-10-22T17:40:50.751Z,40.21
2022-10-22T17:43:20.916Z,39.76
2022-10-22T17:45:51.249Z,39.37
2022-10-22T17:48:21.284Z,39.31
2022-10-22T17:50:53.626Z,39.40
2022-10-22T17:53:26.345Z,40.01
2022-10-22T17:56:04.240Z,39.70
2022-10-22T17:58:35.804Z,38.76
2022-10-22T18:01:06.521Z,38.89
2022-10-22T18:03:37.141Z,40.35
2022-10-22T18:06:12.043Z,39.21
2022-10-22T18:08:42.644Z,38.90
2022-10-22T18:11:16.129Z,37.90
2022-10-22T18:13:48.993Z,37.42
2022-10-22T18:16:19.748Z,37.37
2022-10-22T18:18:55.000Z,38.18
2022-10-22T18:21:28.266Z,38.36
2022-10-22T18:24:00.922Z,38.34
2022-10-22T18:26:31.635Z,40.43
2022-10-22T18:29:01.713Z,40.35
2022-10-22T18:31:31.873Z,39.12
2022-10-22T18:34:02.073Z,39.29
2022-10-22T18:36:32.253Z,39.49
2022-10-22T18:39:03.871Z,38.98
2022-10-22T18:41:36.048Z,38.94
2022-10-22T18:44:08.257Z,38.89
2022-10-22T18:46:40.737Z,39.19
2022-10-22T18:49:14.853Z,39.32
2022-10-22T18:51:45.319Z,41.62
2022-10-22T18:54:23.018Z,40.22
2022-10-22T18:56:58.073Z,40.93
2022-10-22T18:59:30.410Z,40.84
2022-10-22T19:02:01.100Z,40.82
2022-10-22T19:04:38.115Z,40.57
2022-10-22T19:09:45.366Z,41.03
2022-10-22T19:12:17.142Z,41.56
2022-10-22T19:14:47.166Z,40.94
2022-10-22T19:17:17.402Z,40.81
2022-10-22T19:19:47.588Z,41.72
2022-10-22T19:22:17.875Z,42.24
2022-10-22T19:24:50.044Z,42.78
2022-10-22T19:27:21.355Z,42.29
2022-10-22T19:29:51.091Z,42.19
2022-10-22T19:32:21.567Z,41.96
2022-10-22T19:34:51.594Z,42.07
2022-10-22T19:37:21.673Z,41.77
2022-10-22T19:39:51.643Z,42.57
2022-10-22T19:42:22.224Z,42.56
2022-10-22T19:44:52.493Z,43.31
2022-10-22T19:47:23.307Z,41.72
2022-10-22T19:49:53.631Z,42.18
2022-10-22T19:52:23.828Z,42.22
2022-10-22T19:54:53.896Z,41.86
2022-10-22T19:57:24.950Z,42.19
2022-10-22T19:59:54.783Z,42.77
2022-10-22T20:02:24.951Z,42.82
2022-10-22T20:04:55.263Z,42.56
2022-10-22T20:07:25.411Z,41.81
2022-10-22T20:09:55.860Z,41.80
2022-10-22T20:12:25.963Z,40.97
2022-10-22T20:14:56.139Z,41.18
2022-10-22T20:17:26.204Z,40.61
2022-10-22T20:19:58.093Z,40.39
2022-10-22T20:22:28.274Z,41.86
2022-10-22T20:24:58.406Z,40.82
2022-10-22T20:27:29.929Z,41.52
2022-10-22T20:30:01.314Z,41.96
2022-10-22T20:32:31.911Z,41.21
2022-10-22T20:35:02.209Z,41.96
2022-10-22T20:37:32.296Z,41.30
2022-10-22T20:40:02.458Z,40.63
2022-10-22T20:42:32.587Z,42.12
2022-10-22T20:45:02.728Z,41.67
2022-10-22T20:47:44.378Z,40.78
2022-10-22T20:50:23.304Z,41.74
2022-10-22T20:52:53.928Z,43.68
2022-10-22T20:55:24.159Z,43.84
2022-10-22T20:57:54.292Z,43.42
2022-10-22T21:00:23.837Z,42.97
2022-10-22T21:02:53.868Z,42.01
2022-10-22T21:05:23.951Z,42.88
2022-10-22T21:07:54.394Z,41.96
2022-10-22T21:10:25.487Z,41.93
2022-10-22T21:12:58.672Z,41.37
2022-10-22T21:15:29.974Z,41.57
2022-10-22T21:18:00.483Z,42.32
2022-10-22T21:20:30.579Z,41.58
2022-10-22T21:23:00.664Z,41.96
2022-10-22T21:25:30.677Z,42.37
2022-10-22T21:28:00.943Z,41.72
2022-10-22T21:30:30.817Z,41.75
2022-10-22T21:33:00.874Z,41.07
2022-10-22T21:35:31.140Z,41.06
2022-10-22T21:38:01.563Z,42.46
2022-10-22T21:40:31.626Z,40.61
2022-10-22T21:43:01.719Z,40.37
2022-10-22T21:45:31.825Z,41.00
2022-10-22T21:48:01.902Z,42.16
2022-10-22T21:50:32.516Z,42.09
2022-10-22T21:53:02.849Z,41.97
2022-10-22T21:55:36.401Z,41.94
2022-10-22T21:58:06.901Z,42.42
2022-10-22T22:00:37.947Z,41.91
2022-10-22T22:03:10.908Z,42.70
2022-10-22T22:05:41.629Z,43.21
2022-10-22T22:08:11.742Z,42.90
2022-10-22T22:13:18.674Z,42.98
2022-10-22T22:15:49.075Z,43.77
2022-10-22T22:18:20.522Z,43.09
2022-10-22T22:20:50.967Z,43.94
2022-10-22T22:23:21.798Z,43.00
2022-10-22T22:25:51.925Z,44.63
2022-10-22T22:28:22.612Z,43.60
2022-10-22T22:30:52.748Z,44.43
2022-10-22T22:33:22.934Z,44.25
2022-10-22T22:35:54.084Z,44.98
2022-10-22T22:38:24.357Z,44.33
2022-10-22T22:40:54.502Z,43.22
2022-10-22T22:43:24.676Z,44.65
2022-10-22T22:46:04.520Z,43.45
2022-10-22T22:48:36.235Z,44.08
2022-10-22T22:51:08.827Z,43.89
2022-10-22T22:53:39.285Z,44.88
2022-10-22T22:56:11.710Z,43.73
2022-10-22T22:58:43.297Z,45.48
2022-10-22T23:01:22.921Z,44.74
2022-10-22T23:04:03.009Z,43.47
2022-10-22T23:06:37.573Z,42.69
2022-10-22T23:09:11.357Z,42.73
2022-10-22T23:11:43.812Z,43.58
2022-10-22T23:14:16.970Z,43.30
2022-10-22T23:16:50.610Z,42.70
2022-10-22T23:19:24.273Z,43.19
2022-10-22T23:21:57.668Z,42.96
2022-10-22T23:24:31.054Z,42.19
2022-10-22T23:27:04.457Z,42.43
2022-10-22T23:29:37.862Z,42.49
2022-10-22T23:32:14.542Z,42.83
2022-10-22T23:34:44.710Z,42.82
2022-10-22T23:37:14.949Z,42.62
2022-10-22T23:39:45.096Z,42.06
2022-10-22T23:42:15.309Z,42.12
2022-10-22T23:44:45.579Z,41.99
2022-10-22T23:47:15.718Z,41.84
2022-10-22T23:49:45.936Z,41.64
2022-10-22T23:52:16.173Z,41.02
2022-10-22T23:54:46.398Z,41.30
2022-10-22T23:57:16.543Z,41.36
2022-10-22T23:59:46.719Z,41.09
